createdAt,value
2023-09-06T00:02:23.567Z,100953.41
2023-09-06T00:04:51.774Z,100954.92
2023-09-06T00:07:19.390Z,100955.37
2023-09-06T00:09:46.861Z,100962.13
2023-09-06T00:12:14.225Z,100962.89
2023-09-06T00:14:41.637Z,100962.11
2023-09-06T00:17:09.806Z,100962.20
2023-09-06T00:19:37.215Z,100963.17
2023-09-06T00:22:04.656Z,100964.54
2023-09-06T00:24:32.636Z,100964.17
2023-09-06T00:27:04.602Z,100959.63
2023-09-06T00:29:33.673Z,100952.79
2023-09-06T00:32:01.099Z,100950.47
2023-09-06T00:34:28.587Z,100950.05
2023-09-06T00:36:56.035Z,100941.45
2023-09-06T00:39:24.612Z,100942.99
2023-09-06T00:41:52.131Z,100940.48
2023-09-06T00:44:20.998Z,100941.14
2023-09-06T00:46:48.890Z,100943.56
2023-09-06T00:49:16.610Z,100942.80
2023-09-06T00:51:44.336Z,100937.97
2023-09-06T00:54:11.998Z,100934.39
2023-09-06T00:56:40.820Z,100934.95
2023-09-06T00:59:13.902Z,100940.13
2023-09-06T01:01:41.462Z,100942.14
2023-09-06T01:04:10.010Z,100940.41
2023-09-06T01:06:39.857Z,100937.43
2023-09-06T01:09:07.832Z,100936.21
2023-09-06T01:11:38.723Z,100936.77
2023-09-06T01:14:06.309Z,100933.02
2023-09-06T01:16:46.775Z,100935.40
2023-09-06T01:19:15.991Z,100933.55
2023-09-06T01:21:53.571Z,100936.95
2023-09-06T01:24:22.236Z,100939.15
2023-09-06T01:26:50.013Z,100936.38
2023-09-06T01:29:18.895Z,100933.79
2023-09-06T01:31:46.324Z,100935.02
2023-09-06T01:34:14.003Z,100938.70
2023-09-06T01:36:41.573Z,100937.46
2023-09-06T01:39:11.882Z,100933.25
2023-09-06T01:41:39.315Z,100936.41
2023-09-06T01:44:06.743Z,100935.44
2023-09-06T01:46:34.256Z,100935.69
2023-09-06T01:49:01.803Z,100940.48
2023-09-06T01:51:29.242Z,100941.41
2023-09-06T01:53:56.674Z,100940.91
2023-09-06T01:56:24.107Z,100939.23
2023-09-06T01:58:51.554Z,100938.79
2023-09-06T02:01:20.279Z,100935.88
2023-09-06T02:03:48.414Z,100933.53
2023-09-06T02:06:16.043Z,100937.67
2023-09-06T02:08:43.503Z,100942.13
2023-09-06T02:11:11.232Z,100942.89
2023-09-06T02:13:38.799Z,100948.60
2023-09-06T02:16:07.958Z,100952.73
2023-09-06T02:18:35.600Z,100952.66
2023-09-06T02:21:03.036Z,100953.27
2023-09-06T02:23:30.521Z,100953.13
2023-09-06T02:25:58.799Z,100956.34
2023-09-06T02:28:26.499Z,100955.91
2023-09-06T02:30:54.205Z,100956.67
2023-09-06T02:33:21.814Z,100956.23
2023-09-06T02:35:50.551Z,100957.21
2023-09-06T02:38:18.101Z,100956.58
2023-09-06T02:40:45.651Z,100954.69
2023-09-06T02:43:14.692Z,100956.66
2023-09-06T02:45:51.799Z,100956.66
2023-09-06T02:48:20.284Z,100958.09
2023-09-06T02:50:48.788Z,100955.70
2023-09-06T02:53:28.262Z,100955.45
2023-09-06T02:56:00.339Z,100955.54
2023-09-06T02:58:28.751Z,100950.36
2023-09-06T03:01:00.483Z,100951.31
2023-09-06T03:03:29.418Z,100954.17
2023-09-06T03:06:00.843Z,100954.09
2023-09-06T03:08:33.698Z,100955.57
2023-09-06T03:11:02.258Z,100954.04
2023-09-06T03:13:30.684Z,100955.13
2023-09-06T03:16:05.242Z,100957.30
2023-09-06T03:18:45.928Z,100954.77
2023-09-06T03:21:22.820Z,100956.94
2023-09-06T03:23:52.701Z,100956.48
2023-09-06T03:26:24.096Z,100954.06
2023-09-06T03:28:56.100Z,100956.02
2023-09-06T03:31:26.270Z,100956.24
2023-09-06T03:33:53.905Z,100959.23
2023-09-06T03:36:25.894Z,100962.05
2023-09-06T03:38:53.322Z,100961.05
2023-09-06T03:41:20.844Z,100957.73
2023-09-06T03:43:48.295Z,100959.99
2023-09-06T03:46:17.905Z,100955.60
2023-09-06T03:48:46.809Z,100953.66
2023-09-06T03:51:15.295Z,100956.11
2023-09-06T03:53:43.491Z,100952.67
2023-09-06T03:56:11.777Z,100952.55
2023-09-06T03:58:42.007Z,100953.14
2023-09-06T04:01:13.053Z,100952.67
2023-09-06T04:03:41.736Z,100950.25
2023-09-06T04:06:12.190Z,100952.73
2023-09-06T04:08:40.204Z,100953.48
2023-09-06T04:11:08.471Z,100953.30
2023-09-06T04:13:36.657Z,100953.30
2023-09-06T04:16:07.181Z,100952.23
2023-09-06T04:18:36.184Z,100952.56
2023-09-06T04:21:09.552Z,100951.89
2023-09-06T04:23:41.429Z,100949.60
2023-09-06T04:26:09.106Z,100950.42
2023-09-06T04:28:36.959Z,100947.43
2023-09-06T04:31:05.658Z,100946.21
2023-09-06T04:33:33.282Z,100947.27
2023-09-06T04:36:02.413Z,100947.38
2023-09-06T04:38:32.475Z,100951.67
2023-09-06T04:41:03.850Z,100955.60
2023-09-06T04:43:31.693Z,100949.54
2023-09-06T04:46:00.814Z,100952.59
2023-09-06T04:48:28.673Z,100951.94
2023-09-06T04:50:58.178Z,100951.98
2023-09-06T04:53:26.052Z,100952.23
2023-09-06T04:55:53.932Z,100951.92
2023-09-06T04:58:21.828Z,100952.48
2023-09-06T05:00:50.129Z,100956.54
2023-09-06T05:03:19.414Z,100957.27
2023-09-06T05:05:48.856Z,100960.41
2023-09-06T05:08:17.734Z,100961.80
2023-09-06T05:10:45.621Z,100964.23
2023-09-06T05:13:13.291Z,100965.29
2023-09-06T05:15:41.046Z,100967.02
2023-09-06T05:18:09.572Z,100969.61
2023-09-06T05:20:40.991Z,100969.73
2023-09-06T05:23:11.600Z,100967.91
2023-09-06T05:25:40.447Z,100966.48
2023-09-06T05:28:10.810Z,100965.70
2023-09-06T05:30:46.062Z,100962.28
2023-09-06T05:33:16.087Z,100960.07
2023-09-06T05:35:45.198Z,100960.67
2023-09-06T05:38:12.762Z,100963.57
2023-09-06T05:40:44.822Z,100969.61
2023-09-06T05:43:13.803Z,100972.52
2023-09-06T05:45:41.351Z,100978.55
2023-09-06T05:48:12.160Z,100979.50
2023-09-06T05:50:40.198Z,100981.15
2023-09-06T05:53:07.869Z,100987.16
2023-09-06T05:55:40.913Z,100986.89
2023-09-06T05:58:10.762Z,100989.17
2023-09-06T06:00:38.266Z,100990.46
2023-09-06T06:03:06.827Z,100990.67
2023-09-06T06:05:35.113Z,100995.45
2023-09-06T06:08:04.500Z,101001.44
2023-09-06T06:10:36.440Z,101004.33
2023-09-06T06:13:05.764Z,101005.59
2023-09-06T06:15:33.380Z,101008.80
2023-09-06T06:18:00.868Z,101011.28
2023-09-06T06:20:38.580Z,101018.52
2023-09-06T06:23:14.268Z,101018.88
2023-09-06T06:25:41.800Z,101018.73
2023-09-06T06:28:09.621Z,101021.10
2023-09-06T06:30:37.265Z,101021.52
2023-09-06T06:33:08.225Z,101025.58
2023-09-06T06:35:36.279Z,101020.91
2023-09-06T06:38:04.084Z,101019.02
2023-09-06T06:40:36.742Z,101016.31
2023-09-06T06:43:04.460Z,101013.39
2023-09-06T06:45:31.992Z,101016.24
2023-09-06T06:48:02.508Z,101016.92
2023-09-06T06:50:30.759Z,101018.34
2023-09-06T06:52:58.656Z,101017.81
2023-09-06T06:55:26.511Z,101015.64
2023-09-06T06:57:54.018Z,101019.42
2023-09-06T07:00:23.023Z,101018.17
2023-09-06T07:02:50.668Z,101020.58
2023-09-06T07:05:21.336Z,101022.10
2023-09-06T07:07:49.785Z,101020.24
2023-09-06T07:10:18.927Z,101024.17
2023-09-06T07:12:46.360Z,101026.17
2023-09-06T07:15:14.073Z,101031.50
2023-09-06T07:17:42.730Z,101031.09
2023-09-06T07:20:11.690Z,101029.66
2023-09-06T07:22:39.331Z,101034.52
2023-09-06T07:25:09.068Z,101039.11
2023-09-06T07:27:46.521Z,101043.41
2023-09-06T07:30:14.082Z,101031.41
2023-09-06T07:32:41.762Z,101029.85
2023-09-06T07:35:10.018Z,101030.23
2023-09-06T07:37:37.735Z,101032.90
2023-09-06T07:40:07.447Z,101036.19
2023-09-06T07:42:39.124Z,101034.96
2023-09-06T07:45:08.300Z,101033.42
2023-09-06T07:47:36.214Z,101031.89
2023-09-06T07:50:13.908Z,101034.73
2023-09-06T07:52:41.699Z,101039.48
2023-09-06T07:55:14.097Z,101043.17
2023-09-06T07:57:41.813Z,101044.52
2023-09-06T08:00:09.852Z,101042.06
2023-09-06T08:02:37.497Z,101039.90
2023-09-06T08:05:05.854Z,101037.69
2023-09-06T08:07:33.628Z,101037.67
2023-09-06T08:10:02.528Z,101039.16
2023-09-06T08:12:30.013Z,101037.08
2023-09-06T08:15:00.189Z,101036.20
2023-09-06T08:17:28.434Z,101035.66
2023-09-06T08:19:59.685Z,101033.83
2023-09-06T08:22:35.811Z,101038.27
2023-09-06T08:25:14.774Z,101041.54
2023-09-06T08:27:45.625Z,101042.60
2023-09-06T08:30:16.548Z,101041.85
2023-09-06T08:32:46.760Z,101043.26
2023-09-06T08:35:15.047Z,101051.23
2023-09-06T08:37:42.640Z,101052.69
2023-09-06T08:40:11.659Z,101052.30
2023-09-06T08:42:39.710Z,101053.92
2023-09-06T08:45:09.788Z,101053.72
2023-09-06T08:47:41.910Z,101051.67
2023-09-06T08:50:11.265Z,101054.76
2023-09-06T08:52:44.174Z,101057.55
2023-09-06T08:55:13.103Z,101060.95
2023-09-06T08:57:43.067Z,101060.89
2023-09-06T09:00:14.966Z,101056.30
2023-09-06T09:02:43.933Z,101056.30
2023-09-06T09:05:19.876Z,101060.13
2023-09-06T09:07:57.106Z,101055.11
2023-09-06T09:10:27.501Z,101055.45
2023-09-06T09:12:59.375Z,101054.39
2023-09-06T09:15:27.342Z,101053.49
2023-09-06T09:20:27.766Z,101051.66
2023-09-06T09:23:02.123Z,101043.56
2023-09-06T09:25:29.603Z,101044.65
2023-09-06T09:27:58.803Z,101047.52
2023-09-06T09:30:31.433Z,101049.31
2023-09-06T09:33:03.403Z,101053.66
2023-09-06T09:35:35.904Z,101053.30
2023-09-06T09:38:06.015Z,101054.83
2023-09-06T09:40:46.462Z,101056.45
2023-09-06T09:43:20.221Z,101054.29
2023-09-06T09:45:48.546Z,101053.11
2023-09-06T09:48:17.743Z,101059.48
2023-09-06T09:50:48.419Z,101056.99
2023-09-06T09:53:22.780Z,101054.56
2023-09-06T09:55:56.899Z,101053.39
2023-09-06T09:58:28.617Z,101051.63
2023-09-06T10:01:00.459Z,101052.71
2023-09-06T10:03:31.508Z,101051.64
2023-09-06T10:06:02.297Z,101053.41
2023-09-06T10:08:33.435Z,101050.77
2023-09-06T10:11:00.869Z,101047.06
2023-09-06T10:13:29.834Z,101045.45
2023-09-06T10:15:58.267Z,101046.69
2023-09-06T10:18:26.293Z,101047.66
2023-09-06T10:20:54.857Z,101048.71
2023-09-06T10:23:22.555Z,101049.02
2023-09-06T10:25:55.043Z,101051.41
2023-09-06T10:28:32.183Z,101050.04
2023-09-06T10:31:08.988Z,101049.02
2023-09-06T10:33:37.234Z,101047.86
2023-09-06T10:36:14.629Z,101051.17
2023-09-06T10:38:59.782Z,101048.66
2023-09-06T10:41:27.961Z,101047.00
2023-09-06T10:43:59.179Z,101046.17
2023-09-06T10:46:29.776Z,101044.50
2023-09-06T10:49:13.858Z,101043.41
2023-09-06T10:51:59.247Z,101045.36
2023-09-06T10:54:44.795Z,101047.12
2023-09-06T10:57:16.316Z,101046.83
2023-09-06T10:59:57.949Z,101045.70
2023-09-06T11:02:28.015Z,101047.05
2023-09-06T11:05:32.472Z,101044.23
2023-09-06T11:08:01.174Z,101041.00
2023-09-06T11:10:29.118Z,101042.06
2023-09-06T11:12:58.487Z,101038.03
2023-09-06T11:15:26.597Z,101038.54
2023-09-06T11:18:00.984Z,101037.27
2023-09-06T11:20:30.921Z,101034.14
2023-09-06T11:23:00.885Z,101029.63
2023-09-06T11:25:29.861Z,101032.92
2023-09-06T11:28:01.117Z,101032.40
2023-09-06T11:30:32.666Z,101033.30
2023-09-06T11:33:00.573Z,101032.69
2023-09-06T11:35:34.615Z,101032.70
2023-09-06T11:38:09.747Z,101026.47
2023-09-06T11:40:37.661Z,101028.14
2023-09-06T11:43:09.217Z,101027.52
2023-09-06T11:45:39.642Z,101027.29
2023-09-06T11:48:15.933Z,101026.55
2023-09-06T11:50:45.147Z,101023.52
2023-09-06T11:53:14.901Z,101024.57
2023-09-06T11:55:46.960Z,101022.25
2023-09-06T11:58:17.884Z,101016.02
2023-09-06T12:00:51.680Z,101010.64
2023-09-06T12:03:28.248Z,101013.47
2023-09-06T12:06:07.206Z,101012.65
2023-09-06T12:08:36.358Z,101015.87
2023-09-06T12:11:09.042Z,101017.73
2023-09-06T12:13:38.962Z,101013.08
2023-09-06T12:16:09.331Z,101013.62
2023-09-06T12:18:38.626Z,101011.45
2023-09-06T12:21:08.404Z,101009.86
2023-09-06T12:23:38.704Z,101011.51
2023-09-06T12:26:06.855Z,101010.08
2023-09-06T12:28:35.103Z,101009.09
2023-09-06T12:31:16.652Z,101004.02
2023-09-06T12:33:48.950Z,101000.02
2023-09-06T12:36:18.615Z,100999.68
2023-09-06T12:38:47.019Z,101000.66
2023-09-06T12:41:15.005Z,100997.06
2023-09-06T12:43:42.484Z,100995.31
2023-09-06T12:46:12.353Z,100995.20
2023-09-06T12:48:40.260Z,100999.15
2023-09-06T12:51:08.526Z,100999.35
2023-09-06T12:53:36.636Z,100999.92
2023-09-06T12:56:04.514Z,100997.13
2023-09-06T12:58:33.563Z,100993.52
2023-09-06T13:01:04.027Z,100990.22
2023-09-06T13:03:31.772Z,100987.23
2023-09-06T13:06:02.182Z,100986.05
2023-09-06T13:08:32.169Z,100987.81
2023-09-06T13:11:00.291Z,100992.48
2023-09-06T13:13:27.831Z,100988.75
2023-09-06T13:15:55.331Z,100986.77
2023-09-06T13:18:23.064Z,100979.60
2023-09-06T13:20:55.079Z,100978.24
2023-09-06T13:23:22.536Z,100974.91
2023-09-06T13:25:50.072Z,100970.20
2023-09-06T13:28:18.340Z,100972.80
2023-09-06T13:30:45.878Z,100972.09
2023-09-06T13:33:13.459Z,100967.41
2023-09-06T13:35:40.960Z,100964.36
2023-09-06T13:38:08.488Z,100967.85
2023-09-06T13:40:36.038Z,100965.46
2023-09-06T13:43:04.153Z,100967.85
2023-09-06T13:45:31.723Z,100964.73
2023-09-06T13:47:59.238Z,100963.06
2023-09-06T13:50:26.853Z,100963.63
2023-09-06T13:52:54.327Z,100965.57
2023-09-06T13:55:21.840Z,100966.93
2023-09-06T13:57:49.353Z,100965.81
2023-09-06T14:00:17.667Z,100967.14
2023-09-06T14:02:45.343Z,100967.02
2023-09-06T14:05:13.146Z,100960.26
2023-09-06T14:07:40.798Z,100957.45
2023-09-06T14:10:08.767Z,100958.94
2023-09-06T14:12:36.193Z,100961.39
2023-09-06T14:15:04.303Z,100959.92
2023-09-06T14:17:31.837Z,100958.46
2023-09-06T14:19:59.723Z,100956.45
2023-09-06T14:22:27.735Z,100954.45
2023-09-06T14:24:55.219Z,100953.25
2023-09-06T14:27:22.808Z,100955.98
2023-09-06T14:29:53.214Z,100959.20
2023-09-06T14:32:22.258Z,100954.30
2023-09-06T14:34:49.848Z,100951.81
2023-09-06T14:37:17.465Z,100948.48
2023-09-06T14:39:45.539Z,100950.03
2023-09-06T14:42:12.993Z,100949.83
2023-09-06T14:44:40.531Z,100951.20
2023-09-06T14:47:08.252Z,100951.89
2023-09-06T14:49:35.798Z,100955.40
2023-09-06T14:52:05.718Z,100954.89
2023-09-06T14:54:33.225Z,100953.30
2023-09-06T14:57:00.681Z,100954.09
2023-09-06T14:59:28.605Z,100950.70
2023-09-06T15:01:56.106Z,100951.77
2023-09-06T15:04:23.650Z,100953.56
2023-09-06T15:06:59.823Z,100956.98
2023-09-06T15:09:28.340Z,100953.81
2023-09-06T15:11:56.339Z,100952.31
2023-09-06T15:14:25.080Z,100954.15
2023-09-06T15:16:52.694Z,100953.86
2023-09-06T15:19:20.700Z,100955.98
2023-09-06T15:21:48.178Z,100959.63
2023-09-06T15:24:15.681Z,100959.83
2023-09-06T15:26:43.178Z,100959.45
2023-09-06T15:29:10.610Z,100960.09
2023-09-06T15:31:38.074Z,100962.26
2023-09-06T15:34:05.565Z,100963.54
2023-09-06T15:36:33.006Z,100960.87
2023-09-06T15:39:00.544Z,100956.84
2023-09-06T15:41:33.206Z,100956.54
2023-09-06T15:44:05.944Z,100962.29
2023-09-06T15:46:33.962Z,100960.52
2023-09-06T15:49:01.633Z,100959.98
2023-09-06T15:51:29.785Z,100955.04
2023-09-06T15:53:57.334Z,100954.63
2023-09-06T15:56:24.799Z,100958.95
2023-09-06T15:58:54.491Z,100952.89
2023-09-06T16:01:22.215Z,100952.90
2023-09-06T16:03:50.025Z,100953.95
2023-09-06T16:06:17.479Z,100953.08
2023-09-06T16:08:45.011Z,100954.95
2023-09-06T16:11:12.805Z,100959.17
2023-09-06T16:13:40.290Z,100958.18
2023-09-06T16:16:07.789Z,100954.70
2023-09-06T16:18:35.333Z,100954.41
2023-09-06T16:21:02.789Z,100958.20
2023-09-06T16:23:30.285Z,100959.66
2023-09-06T16:25:57.828Z,100957.95
2023-09-06T16:28:26.559Z,100955.08
2023-09-06T16:30:54.027Z,100951.75
2023-09-06T16:33:21.534Z,100952.85
2023-09-06T16:35:49.030Z,100957.21
2023-09-06T16:38:17.681Z,100956.20
2023-09-06T16:40:45.862Z,100952.34
2023-09-06T16:43:13.919Z,100950.73
2023-09-06T16:45:41.699Z,100945.40
2023-09-06T16:48:09.350Z,100947.05
2023-09-06T16:50:37.028Z,100944.63
2023-09-06T16:53:07.314Z,100945.89
2023-09-06T16:55:34.832Z,100942.81
2023-09-06T16:58:07.753Z,100945.54
2023-09-06T17:00:37.666Z,100944.69
2023-09-06T17:03:07.443Z,100942.11
2023-09-06T17:05:35.848Z,100946.98
2023-09-06T17:08:03.743Z,100946.63
2023-09-06T17:10:34.372Z,100948.74
2023-09-06T17:13:03.168Z,100951.04
2023-09-06T17:15:32.915Z,100950.19
2023-09-06T17:18:00.550Z,100955.18
2023-09-06T17:20:28.235Z,100958.89
2023-09-06T17:22:59.307Z,100959.53
2023-09-06T17:25:27.118Z,100964.58
2023-09-06T17:27:55.163Z,100971.77
2023-09-06T17:30:24.289Z,100968.74
2023-09-06T17:33:16.289Z,100969.09
2023-09-06T17:35:49.912Z,100972.02
2023-09-06T17:38:18.813Z,100974.75
2023-09-06T17:40:48.322Z,100977.70
2023-09-06T17:43:17.388Z,100979.34
2023-09-06T17:45:50.161Z,100979.89
2023-09-06T17:48:19.931Z,100986.76
2023-09-06T17:50:54.020Z,100984.85
2023-09-06T17:53:26.442Z,100994.63
2023-09-06T17:56:08.957Z,100994.71
2023-09-06T17:58:38.740Z,101000.96
2023-09-06T18:01:12.191Z,100997.83
2023-09-06T18:03:41.967Z,101005.41
2023-09-06T18:06:10.996Z,101014.06
2023-09-06T18:08:39.784Z,101012.87
2023-09-06T18:11:08.109Z,101013.27
2023-09-06T18:13:37.955Z,101013.95
2023-09-06T18:16:07.041Z,101015.23
2023-09-06T18:18:35.213Z,101020.36
2023-09-06T18:21:05.066Z,101025.39
2023-09-06T18:23:33.651Z,101026.38
2023-09-06T18:26:01.413Z,101031.83
2023-09-06T18:28:30.508Z,101036.83
2023-09-06T18:30:59.929Z,101037.10
2023-09-06T18:33:27.715Z,101039.07
2023-09-06T18:35:56.331Z,101045.29
2023-09-06T18:38:25.602Z,101044.54
2023-09-06T18:40:56.801Z,101046.36
2023-09-06T18:43:25.208Z,101051.59
2023-09-06T18:45:53.701Z,101056.06
2023-09-06T18:48:23.219Z,101054.16
2023-09-06T18:50:51.655Z,101058.05
2023-09-06T18:53:21.537Z,101063.99
2023-09-06T18:55:48.992Z,101063.31
2023-09-06T18:58:19.593Z,101064.18
2023-09-06T19:00:47.534Z,101063.38
2023-09-06T19:03:16.641Z,101065.20
2023-09-06T19:05:44.753Z,101068.60
2023-09-06T19:08:14.419Z,101061.09
2023-09-06T19:10:43.221Z,101057.80
2023-09-06T19:13:11.822Z,101060.73
2023-09-06T19:15:39.663Z,101061.20
2023-09-06T19:18:07.658Z,101063.11
2023-09-06T19:20:37.618Z,101061.60
2023-09-06T19:23:07.893Z,101058.14
2023-09-06T19:25:42.936Z,101060.13
2023-09-06T19:28:11.405Z,101062.59
2023-09-06T19:30:38.894Z,101063.90
2023-09-06T19:33:06.417Z,101064.66
2023-09-06T19:35:35.713Z,101064.23
2023-09-06T19:38:05.718Z,101065.85
2023-09-06T19:40:33.270Z,101062.18
2023-09-06T19:43:01.571Z,101067.77
2023-09-06T19:45:29.637Z,101067.33
2023-09-06T19:47:57.200Z,101069.22
2023-09-06T19:50:24.911Z,101070.94
2023-09-06T19:52:52.788Z,101077.07
2023-09-06T19:55:22.971Z,101079.84
2023-09-06T19:57:50.603Z,101078.01
2023-09-06T20:00:18.155Z,101080.57
2023-09-06T20:02:45.883Z,101081.70
2023-09-06T20:05:13.907Z,101083.54
2023-09-06T20:07:41.540Z,101084.17
2023-09-06T20:10:10.061Z,101089.14
2023-09-06T20:12:37.541Z,101083.45
2023-09-06T20:15:05.617Z,101088.55
2023-09-06T20:17:33.332Z,101089.34
2023-09-06T20:20:01.235Z,101094.14
2023-09-06T20:22:28.772Z,101096.24
2023-09-06T20:24:56.234Z,101093.71
2023-09-06T20:27:23.956Z,101098.75
2023-09-06T20:29:51.702Z,101098.00
2023-09-06T20:32:19.286Z,101100.40
2023-09-06T20:34:46.728Z,101103.74
2023-09-06T20:37:14.256Z,101103.98
2023-09-06T20:39:42.316Z,101107.52
2023-09-06T20:42:10.148Z,101107.67
2023-09-06T20:44:37.697Z,101104.27
2023-09-06T20:47:05.359Z,101107.33
2023-09-06T20:49:33.244Z,101110.88
2023-09-06T20:52:00.819Z,101110.71
2023-09-06T20:54:28.347Z,101111.98
2023-09-06T20:56:55.811Z,101113.41
2023-09-06T20:59:23.545Z,101115.23
2023-09-06T21:01:51.046Z,101118.09
2023-09-06T21:04:18.595Z,101117.80
2023-09-06T21:06:46.316Z,101120.89
2023-09-06T21:09:14.439Z,101130.66
2023-09-06T21:11:42.039Z,101130.08
2023-09-06T21:14:09.543Z,101133.04
2023-09-06T21:16:37.088Z,101130.06
2023-09-06T21:19:04.800Z,101134.10
2023-09-06T21:21:32.371Z,101133.02
2023-09-06T21:24:00.059Z,101133.40
2023-09-06T21:26:27.617Z,101135.18
2023-09-06T21:28:57.016Z,101138.19
2023-09-06T21:31:25.421Z,101142.81
2023-09-06T21:33:52.960Z,101144.76
2023-09-06T21:36:20.543Z,101145.08
2023-09-06T21:38:48.225Z,101150.23
2023-09-06T21:41:15.686Z,101151.17
2023-09-06T21:43:43.134Z,101155.23
2023-09-06T21:46:10.609Z,101152.48
2023-09-06T21:48:38.138Z,101153.04
2023-09-06T21:51:14.179Z,101152.77
2023-09-06T21:53:41.607Z,101154.98
2023-09-06T21:56:10.336Z,101155.05
2023-09-06T21:58:38.197Z,101158.83
2023-09-06T22:01:06.373Z,101158.53
2023-09-06T22:03:34.793Z,101156.06
2023-09-06T22:06:04.442Z,101156.95
2023-09-06T22:08:32.352Z,101157.74
2023-09-06T22:11:00.173Z,101156.64
2023-09-06T22:13:27.675Z,101155.34
2023-09-06T22:15:55.700Z,101157.38
2023-09-06T22:18:23.315Z,101159.05
2023-09-06T22:20:50.802Z,101156.91
2023-09-06T22:23:18.321Z,101162.66
2023-09-06T22:25:45.810Z,101166.81
2023-09-06T22:28:13.414Z,101165.70
2023-09-06T22:30:42.878Z,101165.13
2023-09-06T22:33:10.742Z,101168.55
2023-09-06T22:35:38.395Z,101169.52
2023-09-06T22:38:05.867Z,101167.34
2023-09-06T22:40:34.640Z,101164.30
2023-09-06T22:43:02.145Z,101165.47
2023-09-06T22:45:29.611Z,101164.29
2023-09-06T22:47:57.133Z,101166.97
2023-09-06T22:50:24.609Z,101166.85
2023-09-06T22:52:52.072Z,101163.05
2023-09-06T22:55:19.556Z,101159.41
2023-09-06T22:57:47.049Z,101162.61
2023-09-06T23:00:14.659Z,101165.33
2023-09-06T23:02:43.467Z,101159.44
2023-09-06T23:05:11.179Z,101159.18
2023-09-06T23:07:38.659Z,101160.55
2023-09-06T23:10:10.147Z,101163.84
2023-09-06T23:12:40.639Z,101164.30
2023-09-06T23:15:09.543Z,101162.31
2023-09-06T23:17:39.874Z,101165.73
2023-09-06T23:20:20.460Z,101167.27
2023-09-06T23:22:51.220Z,101166.67
2023-09-06T23:25:22.641Z,101168.90
2023-09-06T23:27:51.950Z,101168.84
2023-09-06T23:30:22.864Z,101167.71
2023-09-06T23:32:58.527Z,101172.70
2023-09-06T23:35:26.905Z,101176.66
2023-09-06T23:37:58.479Z,101177.77
2023-09-06T23:40:26.095Z,101179.06
2023-09-06T23:42:59.324Z,101178.77
2023-09-06T23:45:27.415Z,101179.73
2023-09-06T23:47:56.916Z,101182.26
2023-09-06T23:50:29.378Z,101181.65
2023-09-06T23:52:57.502Z,101176.30
2023-09-06T23:55:26.717Z,101179.92
2023-09-06T23:57:54.192Z,101179.70
